Time;durP1;ratioP1;P1;durP2;ratioP2;P2;SDS_P1;SDS_P2;PMS_P1;PMS_P2;Temp;Humidity;BMP_temperature;BMP_pressure;BME280_temperature;BME280_humidity;BME280_pressure;Samples;Min_cycle;Max_cycle;Signal;HPM_P1;HPM_P2
2021/05/31 00:01:12;;;;;;;4.83;4.57;;;19.30;26.50;;;;;;4974212;28;20256;-76
2021/05/31 00:03:38;;;;;;;4.67;4.47;;;19.30;26.50;;;;;;4974097;28;20496;-76
2021/05/31 00:06:04;;;;;;;4.40;4.20;;;19.30;26.60;;;;;;4973765;28;20731;-77
2021/05/31 00:08:29;;;;;;;4.27;4.07;;;19.30;26.50;;;;;;4974116;28;20418;-77
2021/05/31 00:10:55;;;;;;;4.97;4.73;;;19.30;26.50;;;;;;4973937;28;20241;-77
2021/05/31 00:13:21;;;;;;;4.30;4.10;;;19.30;26.60;;;;;;4974145;28;20592;-76
2021/05/31 00:15:46;;;;;;;5.40;5.10;;;19.30;26.60;;;;;;4973891;28;20614;-76
2021/05/31 00:18:15;;;;;;;4.57;4.37;;;19.30;27.20;;;;;;4973916;28;20682;-75
2021/05/31 00:20:41;;;;;;;4.50;4.30;;;19.30;26.60;;;;;;4974543;28;20642;-75
2021/05/31 00:23:07;;;;;;;4.90;4.60;;;19.30;26.70;;;;;;4975434;28;20442;-77
2021/05/31 00:25:33;;;;;;;5.00;4.80;;;19.30;26.70;;;;;;4977643;28;20488;-76
2021/05/31 00:27:58;;;;;;;5.50;5.20;;;19.30;26.70;;;;;;4978039;28;20181;-77
2021/05/31 00:30:24;;;;;;;5.00;4.67;;;19.30;26.70;;;;;;4978252;28;20550;-76
2021/05/31 00:32:51;;;;;;;5.10;4.80;;;19.30;26.70;;;;;;4978172;28;20194;-77
2021/05/31 00:35:17;;;;;;;4.50;4.27;;;19.30;26.70;;;;;;4978467;28;20479;-76
2021/05/31 00:37:43;;;;;;;4.27;3.97;;;19.30;26.70;;;;;;4978117;28;20441;-76
2021/05/31 00:40:10;;;;;;;5.50;5.10;;;19.30;26.80;;;;;;4978725;28;20185;-76
2021/05/31 00:42:36;;;;;;;4.23;4.03;;;19.30;26.70;;;;;;4977837;28;20437;-77
2021/05/31 00:45:05;;;;;;;4.13;3.93;;;19.30;26.80;;;;;;4977664;28;20932;-77
2021/05/31 00:47:30;;;;;;;4.30;4.10;;;19.30;26.70;;;;;;4977694;28;20550;-77
2021/05/31 00:49:57;;;;;;;4.10;3.90;;;19.30;26.80;;;;;;4977417;28;20464;-77
2021/05/31 00:52:23;;;;;;;4.43;4.23;;;19.30;26.80;;;;;;4977473;28;20183;-77
2021/05/31 00:54:50;;;;;;;4.77;4.57;;;19.30;26.80;;;;;;4977224;28;20417;-76
2021/05/31 00:57:16;;;;;;;4.30;4.10;;;19.30;26.90;;;;;;4977271;28;20501;-77
2021/05/31 00:59:42;;;;;;;4.30;4.10;;;19.30;26.80;;;;;;4977377;28;20449;-77
2021/05/31 01:02:07;;;;;;;5.10;4.80;;;19.30;26.80;;;;;;4977422;28;20948;-77
2021/05/31 01:04:33;;;;;;;4.63;4.33;;;19.30;26.90;;;;;;4977129;28;20422;-76
2021/05/31 01:07:28;;;;;;;4.10;3.90;;;19.30;26.80;;;;;;4976916;28;20685;-76
2021/05/31 01:10:01;;;;;;;4.97;4.67;;;19.30;26.80;;;;;;4976969;28;20174;-77
2021/05/31 01:12:53;;;;;;;4.30;4.10;;;19.20;26.80;;;;;;4976875;28;20437;-76
2021/05/31 01:16:02;;;;;;;4.50;4.20;;;19.30;26.80;;;;;;4976776;28;20406;-77
2021/05/31 01:18:35;;;;;;;4.80;4.50;;;19.30;26.90;;;;;;4936356;29;20459;-77
2021/05/31 01:21:24;;;;;;;4.50;4.30;;;19.30;26.90;;;;;;4972304;28;20481;-75
2021/05/31 01:24:01;;;;;;;4.73;4.53;;;19.20;26.80;;;;;;4976376;28;20425;-77
2021/05/31 01:26:34;;;;;;;4.50;4.27;;;19.20;26.90;;;;;;4976259;28;20527;-76
2021/05/31 01:29:07;;;;;;;4.60;4.40;;;19.20;26.80;;;;;;4976764;28;20894;-77
2021/05/31 01:31:56;;;;;;;4.00;3.80;;;19.20;26.80;;;;;;4976478;28;20814;-76
2021/05/31 01:34:24;;;;;;;4.30;4.10;;;19.30;26.90;;;;;;4977032;28;20414;-77
2021/05/31 01:36:54;;;;;;;4.07;3.77;;;19.20;26.90;;;;;;4958415;28;20924;-77
2021/05/31 01:39:23;;;;;;;3.80;3.70;;;19.20;26.90;;;;;;4976615;28;20419;-76
2021/05/31 01:41:50;;;;;;;4.50;4.30;;;19.20;26.90;;;;;;4976446;28;20465;-76
2021/05/31 01:44:18;;;;;;;4.93;4.73;;;19.20;26.90;;;;;;4976167;28;20429;-77
2021/05/31 01:46:45;;;;;;;4.30;4.00;;;19.20;27.00;;;;;;4975696;28;20465;-76
2021/05/31 01:49:12;;;;;;;4.40;4.10;;;19.20;27.00;;;;;;4975687;28;20410;-76
2021/05/31 01:51:38;;;;;;;4.00;3.80;;;19.20;26.90;;;;;;4975531;28;20799;-75
2021/05/31 01:54:07;;;;;;;4.20;4.00;;;19.20;27.00;;;;;;4975734;28;20453;-76
2021/05/31 01:56:33;;;;;;;4.00;3.80;;;19.20;27.00;;;;;;4975549;28;20421;-76
2021/05/31 01:58:59;;;;;;;4.53;4.33;;;19.20;27.00;;;;;;4975613;28;20421;-76
2021/05/31 02:01:25;;;;;;;4.10;3.90;;;19.20;27.00;;;;;;4975415;28;20422;-76
2021/05/31 02:03:51;;;;;;;4.33;4.13;;;19.20;27.00;;;;;;4975614;28;20187;-76
2021/05/31 02:06:16;;;;;;;3.70;3.50;;;19.20;27.00;;;;;;4974856;28;20470;-76
2021/05/31 02:08:42;;;;;;;4.50;4.30;;;19.20;27.00;;;;;;4975502;28;20317;-76
2021/05/31 02:11:33;;;;;;;4.57;4.37;;;19.20;27.00;;;;;;4957984;28;20179;-76
2021/05/31 02:14:07;;;;;;;4.97;4.67;;;19.20;27.00;;;;;;4975397;28;20178;-76
2021/05/31 02:16:56;;;;;;;4.47;4.27;;;19.20;27.00;;;;;;4975374;28;20470;-76
2021/05/31 02:19:23;;;;;;;4.60;4.40;;;19.20;27.00;;;;;;4975552;28;20425;-77
2021/05/31 02:21:51;;;;;;;4.30;4.10;;;19.20;27.10;;;;;;4975291;28;20438;-76
2021/05/31 02:24:18;;;;;;;4.10;3.90;;;19.20;27.10;;;;;;4975149;28;20434;-76
2021/05/31 02:26:46;;;;;;;4.43;4.23;;;19.20;27.10;;;;;;4974768;28;20497;-77
2021/05/31 02:29:12;;;;;;;4.30;4.10;;;19.20;27.10;;;;;;4975210;28;20525;-76
2021/05/31 02:31:39;;;;;;;4.37;4.17;;;19.20;27.10;;;;;;4975215;28;20437;-76
2021/05/31 02:34:06;;;;;;;4.27;4.07;;;19.20;27.10;;;;;;4975245;28;20410;-76
2021/05/31 02:36:31;;;;;;;4.07;3.87;;;19.20;27.10;;;;;;4974769;28;20430;-76
2021/05/31 02:38:57;;;;;;;4.37;4.17;;;19.20;27.10;;;;;;4973746;28;20418;-76
2021/05/31 02:41:22;;;;;;;4.23;4.03;;;19.20;27.10;;;;;;4974816;28;20189;-77
2021/05/31 02:43:48;;;;;;;3.80;3.70;;;19.20;27.20;;;;;;4974721;28;20185;-76
2021/05/31 02:46:13;;;;;;;4.17;3.97;;;19.20;27.20;;;;;;4974292;28;20294;-77
2021/05/31 02:48:39;;;;;;;4.13;3.93;;;19.20;27.20;;;;;;4973776;28;20644;-76
2021/05/31 02:51:05;;;;;;;4.00;3.80;;;19.10;27.10;;;;;;4974513;28;20672;-76
2021/05/31 02:53:31;;;;;;;4.03;3.83;;;19.20;27.20;;;;;;4957222;28;20203;-76
2021/05/31 02:55:57;;;;;;;3.83;3.63;;;19.10;27.10;;;;;;4974369;28;20629;-76
2021/05/31 02:58:22;;;;;;;4.60;4.30;;;19.10;27.10;;;;;;4974550;28;20445;-76
2021/05/31 03:00:48;;;;;;;3.83;3.63;;;19.10;27.10;;;;;;4974577;28;20210;-76
2021/05/31 03:03:13;;;;;;;3.77;3.57;;;19.10;27.10;;;;;;4974367;28;20210;-76
2021/05/31 03:05:39;;;;;;;3.80;3.70;;;19.10;27.10;;;;;;4974026;28;20261;-77
2021/05/31 03:08:05;;;;;;;3.87;3.70;;;19.10;27.10;;;;;;4956989;28;20185;-77
2021/05/31 03:10:31;;;;;;;4.00;3.80;;;19.10;27.20;;;;;;4974334;28;20306;-76
2021/05/31 03:13:00;;;;;;;3.47;3.30;;;19.10;27.20;;;;;;4974487;28;20270;-76
2021/05/31 03:15:27;;;;;;;3.70;3.60;;;19.10;27.20;;;;;;4968730;28;20441;-76
2021/05/31 03:17:52;;;;;;;3.80;3.70;;;19.10;27.20;;;;;;4973043;28;20996;-75
2021/05/31 03:20:20;;;;;;;3.60;3.50;;;19.10;27.20;;;;;;4974629;28;20450;-76
2021/05/31 03:22:46;;;;;;;3.90;3.80;;;19.10;27.20;;;;;;4974024;28;20202;-76
2021/05/31 03:25:13;;;;;;;4.30;4.10;;;19.10;27.30;;;;;;4973825;28;20950;-76
2021/05/31 03:27:39;;;;;;;3.77;3.57;;;19.10;27.30;;;;;;4971657;28;20242;-76
2021/05/31 03:30:10;;;;;;;3.93;3.73;;;19.10;27.30;;;;;;4954672;28;20454;-76
2021/05/31 03:32:37;;;;;;;3.67;3.50;;;19.20;27.20;;;;;;4968815;28;20454;-76
2021/05/31 03:35:03;;;;;;;3.73;3.53;;;19.20;27.20;;;;;;4974205;28;20847;-75
2021/05/31 03:37:29;;;;;;;4.10;3.90;;;19.30;27.10;;;;;;4975888;28;20418;-76
2021/05/31 03:39:55;;;;;;;3.70;3.60;;;19.40;27.10;;;;;;4974577;28;20809;-76
2021/05/31 03:42:21;;;;;;;4.20;4.00;;;19.50;27.10;;;;;;4973916;28;20209;-77
2021/05/31 03:44:46;;;;;;;3.90;3.70;;;19.60;27.00;;;;;;4966649;28;20186;-76
2021/05/31 03:47:12;;;;;;;3.60;3.50;;;19.60;26.90;;;;;;4972194;28;20210;-76
2021/05/31 03:49:37;;;;;;;3.40;3.30;;;19.60;26.90;;;;;;4973971;28;20171;-76
2021/05/31 03:52:03;;;;;;;3.43;3.33;;;19.70;26.90;;;;;;4973275;28;20729;-76
2021/05/31 03:54:29;;;;;;;5.20;4.17;;;19.70;26.80;;;;;;4968452;28;20653;-75
2021/05/31 03:56:55;;;;;;;3.97;3.77;;;19.80;26.80;;;;;;4970965;28;20434;-76
2021/05/31 03:59:22;;;;;;;6.03;3.80;;;19.80;26.80;;;;;;4967531;28;20183;-75
2021/05/31 04:01:48;;;;;;;3.80;3.60;;;19.80;26.80;;;;;;4965074;28;20476;-76
2021/05/31 04:04:14;;;;;;;3.90;3.70;;;19.80;26.70;;;;;;4969778;28;20437;-76
2021/05/31 04:11:55;;;;;;;3.57;3.40;;;19.80;26.80;;;;;;4972705;28;20496;-76
2021/05/31 04:14:21;;;;;;;3.90;3.70;;;19.80;26.80;;;;;;4971286;28;20430;-75
2021/05/31 04:16:55;;;;;;;3.80;3.60;;;19.80;26.70;;;;;;4971612;28;20179;-76
2021/05/31 04:19:23;;;;;;;3.47;3.30;;;19.80;26.60;;;;;;4949926;28;20448;-76
2021/05/31 04:21:50;;;;;;;3.70;3.50;;;19.80;26.50;;;;;;4970781;28;20520;-75
2021/05/31 04:24:16;;;;;;;3.63;3.43;;;19.80;27.00;;;;;;4964628;28;20445;-75
2021/05/31 04:26:43;;;;;;;4.00;3.80;;;19.90;26.40;;;;;;4969348;28;20987;-77
2021/05/31 04:29:12;;;;;;;4.17;3.97;;;19.80;26.00;;;;;;4972359;28;20631;-77
2021/05/31 04:31:39;;;;;;;4.20;3.97;;;19.80;25.80;;;;;;4971246;28;20870;-76
2021/05/31 04:34:08;;;;;;;4.23;3.93;;;19.80;25.60;;;;;;4964019;28;20437;-76
2021/05/31 04:36:35;;;;;;;4.30;4.10;;;19.80;25.70;;;;;;4968293;28;20517;-77
2021/05/31 04:39:04;;;;;;;5.40;4.30;;;19.80;25.90;;;;;;4947314;28;20437;-76
2021/05/31 04:41:30;;;;;;;4.53;4.13;;;19.80;25.80;;;;;;4973111;28;20426;-76
2021/05/31 04:43:55;;;;;;;4.90;3.90;;;19.80;25.90;;;;;;4972732;28;20488;-76
2021/05/31 04:46:21;;;;;;;4.10;3.90;;;19.90;26.10;;;;;;4968039;28;20253;-76
2021/05/31 04:48:46;;;;;;;4.40;4.10;;;19.80;26.10;;;;;;4966471;28;20171;-76
2021/05/31 04:51:12;;;;;;;4.87;4.47;;;19.80;26.20;;;;;;4966888;28;20179;-76
2021/05/31 04:53:37;;;;;;;5.70;4.47;;;19.80;26.00;;;;;;4966283;28;20650;-76
2021/05/31 04:56:06;;;;;;;4.10;3.90;;;19.80;26.20;;;;;;4965170;28;20183;-76
2021/05/31 04:58:32;;;;;;;3.70;3.50;;;19.70;26.10;;;;;;4973533;28;20194;-77
2021/05/31 05:00:57;;;;;;;4.37;4.17;;;19.70;26.30;;;;;;4970663;28;20906;-77
2021/05/31 05:03:23;;;;;;;4.20;3.60;;;19.70;26.30;;;;;;4972702;28;20194;-76
2021/05/31 05:05:49;;;;;;;3.80;3.60;;;19.70;26.30;;;;;;4972514;28;20202;-77
2021/05/31 05:08:16;;;;;;;4.43;4.13;;;19.70;26.30;;;;;;4972933;28;20189;-76
2021/05/31 05:10:42;;;;;;;3.87;3.70;;;19.70;26.30;;;;;;4972680;28;20909;-76
2021/05/31 05:13:08;;;;;;;4.13;3.87;;;19.70;26.40;;;;;;4976398;28;20499;-76
2021/05/31 05:15:34;;;;;;;4.10;3.90;;;19.60;26.50;;;;;;4975912;28;20167;-75
2021/05/31 05:18:01;;;;;;;6.87;4.57;;;19.60;26.50;;;;;;4976198;28;20406;-76
2021/05/31 05:20:28;;;;;;;3.83;3.53;;;19.60;26.50;;;;;;4976368;28;20444;-76
2021/05/31 05:22:55;;;;;;;3.83;3.53;;;19.60;26.50;;;;;;4976411;28;20488;-76
2021/05/31 05:25:21;;;;;;;4.10;3.90;;;19.60;26.70;;;;;;4971886;28;20435;-75
2021/05/31 05:27:50;;;;;;;4.13;3.90;;;19.60;26.70;;;;;;4956332;28;20564;-75
2021/05/31 05:30:19;;;;;;;3.87;3.67;;;19.60;26.70;;;;;;4956835;29;20406;-76
2021/05/31 05:32:49;;;;;;;4.10;3.90;;;19.60;26.70;;;;;;4955673;28;20423;-74
2021/05/31 05:38:14;;;;;;;4.23;4.00;;;19.60;26.80;;;;;;4973672;28;20422;-76
2021/05/31 05:43:28;;;;;;;3.97;3.73;;;19.50;26.80;;;;;;4975667;28;20804;-76
2021/05/31 05:46:12;;;;;;;4.07;3.80;;;19.50;26.80;;;;;;4975787;28;20453;-76
2021/05/31 05:48:38;;;;;;;4.03;3.73;;;19.50;26.90;;;;;;4975251;28;20493;-76
2021/05/31 05:51:18;;;;;;;3.37;3.27;;;19.50;26.90;;;;;;4970556;28;20538;-77
2021/05/31 05:53:46;;;;;;;3.97;3.77;;;19.50;27.00;;;;;;4957543;28;20175;-76
2021/05/31 05:56:18;;;;;;;3.80;3.50;;;19.50;27.00;;;;;;4975641;28;20763;-77
2021/05/31 05:58:44;;;;;;;6.17;3.77;;;19.50;27.20;;;;;;4957799;28;20418;-77
2021/05/31 06:01:11;;;;;;;3.83;3.53;;;19.50;27.10;;;;;;4975438;28;20469;-76
2021/05/31 06:03:38;;;;;;;4.13;3.83;;;19.50;27.10;;;;;;4974828;28;20461;-75
2021/05/31 06:06:04;;;;;;;4.20;4.00;;;19.50;27.10;;;;;;4975039;28;20456;-75
2021/05/31 06:08:31;;;;;;;4.40;4.20;;;19.50;27.00;;;;;;4975057;28;20892;-75
2021/05/31 06:10:57;;;;;;;4.80;3.97;;;19.50;26.80;;;;;;4974687;28;20419;-77
2021/05/31 06:13:24;;;;;;;4.80;4.33;;;19.50;26.70;;;;;;4974922;28;20438;-76
2021/05/31 06:15:50;;;;;;;5.33;4.77;;;19.50;26.50;;;;;;4957409;28;20426;-76
2021/05/31 06:18:16;;;;;;;5.17;4.60;;;19.50;26.30;;;;;;4975062;28;20785;-75
2021/05/31 06:20:41;;;;;;;5.20;4.70;;;19.50;26.10;;;;;;4973575;28;20422;-76
2021/05/31 06:23:11;;;;;;;5.50;5.00;;;19.50;25.80;;;;;;4974867;28;20199;-76
2021/05/31 06:25:37;;;;;;;4.60;4.20;;;19.50;26.10;;;;;;4974374;28;20182;-76
2021/05/31 06:28:05;;;;;;;7.73;5.07;;;19.50;25.80;;;;;;4974925;28;20421;-76
2021/05/31 06:30:30;;;;;;;4.40;4.10;;;19.60;25.90;;;;;;4974830;28;20565;-76
2021/05/31 06:32:56;;;;;;;6.00;4.90;;;19.60;26.00;;;;;;4974676;28;20959;-77
2021/05/31 06:35:24;;;;;;;5.37;5.07;;;19.60;26.00;;;;;;4974350;28;20174;-77
2021/05/31 06:37:49;;;;;;;5.60;5.10;;;19.60;25.80;;;;;;4975107;28;20548;-74
2021/05/31 06:40:15;;;;;;;5.33;4.93;;;19.60;25.90;;;;;;4974952;28;20446;-76
2021/05/31 06:42:43;;;;;;;6.27;5.67;;;19.70;25.90;;;;;;4974377;28;20296;-74
2021/05/31 06:45:12;;;;;;;5.43;4.90;;;19.70;25.80;;;;;;4973098;28;20418;-75
2021/05/31 06:47:38;;;;;;;6.43;5.27;;;19.70;25.90;;;;;;4971529;28;20461;-75
2021/05/31 06:50:05;;;;;;;7.93;5.83;;;19.70;25.40;;;;;;4962574;28;20430;-74
2021/05/31 06:52:32;;;;;;;10.03;5.80;;;19.70;25.70;;;;;;4954872;28;20782;-76
2021/05/31 06:54:57;;;;;;;7.80;5.23;;;19.60;25.60;;;;;;4952106;28;20940;-77
2021/05/31 06:57:23;;;;;;;5.93;4.83;;;19.60;25.60;;;;;;4975567;28;20533;-77
2021/05/31 06:59:48;;;;;;;6.33;5.83;;;19.60;25.70;;;;;;4975888;28;20229;-75
2021/05/31 07:02:14;;;;;;;5.80;5.20;;;19.50;25.70;;;;;;4973430;28;20202;-76
2021/05/31 07:04:40;;;;;;;5.73;4.53;;;19.50;25.70;;;;;;4967207;28;20187;-78
2021/05/31 07:07:05;;;;;;;7.00;5.50;;;19.50;25.80;;;;;;4968883;28;20203;-76
2021/05/31 07:09:31;;;;;;;10.57;5.20;;;19.50;25.90;;;;;;4973753;28;20187;-76
2021/05/31 07:11:57;;;;;;;6.37;4.90;;;19.50;25.90;;;;;;4973749;28;20245;-76
2021/05/31 07:14:32;;;;;;;7.03;5.27;;;19.50;26.00;;;;;;4973710;28;20293;-78
2021/05/31 07:16:58;;;;;;;5.20;4.70;;;19.50;26.10;;;;;;4972338;28;20232;-75
2021/05/31 07:19:25;;;;;;;5.13;4.70;;;19.50;26.10;;;;;;4974124;28;20418;-76
2021/05/31 07:21:51;;;;;;;5.57;4.97;;;19.50;26.20;;;;;;4974117;28;20198;-76
2021/05/31 07:24:16;;;;;;;9.40;5.67;;;19.50;26.20;;;;;;4973294;28;20776;-76
2021/05/31 07:26:42;;;;;;;5.77;5.27;;;19.40;26.10;;;;;;4973444;28;20226;-77
2021/05/31 07:29:08;;;;;;;5.23;4.83;;;19.40;26.20;;;;;;4973895;28;20199;-76
2021/05/31 07:31:33;;;;;;;5.10;4.70;;;19.40;26.20;;;;;;4962865;28;20518;-76
2021/05/31 07:33:59;;;;;;;11.43;5.73;;;19.40;26.30;;;;;;4937008;28;20188;-77
2021/05/31 07:36:25;;;;;;;5.83;5.37;;;19.50;26.30;;;;;;4954897;29;20185;-77
2021/05/31 07:38:51;;;;;;;5.70;5.30;;;19.40;26.30;;;;;;4960634;28;20179;-77
2021/05/31 07:41:18;;;;;;;5.70;5.07;;;19.50;26.40;;;;;;4956844;28;20430;-77
2021/05/31 07:43:44;;;;;;;6.53;5.40;;;19.50;26.40;;;;;;4973245;28;20202;-77
2021/05/31 07:46:11;;;;;;;5.70;5.30;;;19.50;26.30;;;;;;4968090;28;20529;-77
2021/05/31 07:48:39;;;;;;;6.40;5.80;;;19.50;26.40;;;;;;4970742;28;20237;-77
2021/05/31 07:51:15;;;;;;;5.17;4.67;;;19.50;26.30;;;;;;4974723;28;20414;-77
2021/05/31 07:53:43;;;;;;;5.43;5.00;;;19.50;26.30;;;;;;4975432;28;20410;-76
2021/05/31 07:56:09;;;;;;;5.57;5.07;;;19.50;26.30;;;;;;4959553;28;20455;-77
2021/05/31 07:58:35;;;;;;;5.40;5.10;;;19.50;26.30;;;;;;4953694;29;20435;-77
2021/05/31 08:01:02;;;;;;;5.80;5.20;;;19.50;26.30;;;;;;4953843;29;20514;-76
2021/05/31 08:03:28;;;;;;;5.63;5.10;;;19.50;26.30;;;;;;4953505;29;20706;-75
2021/05/31 08:05:54;;;;;;;5.60;5.03;;;19.50;26.40;;;;;;4953598;29;20494;-76
2021/05/31 08:08:19;;;;;;;5.30;4.90;;;19.50;26.30;;;;;;4953937;29;20769;-77
2021/05/31 08:10:45;;;;;;;5.40;4.97;;;19.50;26.30;;;;;;4953947;29;20178;-77
2021/05/31 08:13:11;;;;;;;5.33;4.93;;;19.50;26.40;;;;;;4953853;29;20195;-77
2021/05/31 08:15:36;;;;;;;5.97;5.47;;;19.50;26.40;;;;;;4954276;29;20171;-77
2021/05/31 08:18:02;;;;;;;5.43;5.07;;;19.50;26.50;;;;;;4954475;29;20194;-77
2021/05/31 08:20:27;;;;;;;5.60;5.10;;;19.50;26.40;;;;;;4954034;29;20175;-77
2021/05/31 08:22:53;;;;;;;5.30;4.87;;;19.50;26.40;;;;;;4953569;29;20191;-76
2021/05/31 08:25:18;;;;;;;4.73;4.17;;;19.50;26.50;;;;;;4947650;28;20282;-77
2021/05/31 08:27:45;;;;;;;4.87;4.57;;;19.50;26.40;;;;;;4954153;29;20214;-78
2021/05/31 08:30:11;;;;;;;5.30;4.80;;;19.50;26.50;;;;;;4953467;29;20172;-75
2021/05/31 08:32:37;;;;;;;4.83;4.43;;;19.50;26.50;;;;;;4953300;29;20434;-76
2021/05/31 08:35:02;;;;;;;4.80;4.50;;;19.50;26.50;;;;;;4953352;29;20972;-74
2021/05/31 08:37:28;;;;;;;4.73;4.33;;;19.50;26.50;;;;;;4953149;29;20202;-76
2021/05/31 08:39:54;;;;;;;5.23;4.83;;;19.50;26.50;;;;;;4968382;28;20941;-77
2021/05/31 08:42:20;;;;;;;5.00;4.60;;;19.50;26.50;;;;;;4954162;29;20241;-77
2021/05/31 08:44:46;;;;;;;5.17;4.90;;;19.50;26.50;;;;;;4954125;28;20431;-77
2021/05/31 08:47:12;;;;;;;4.60;4.30;;;19.50;26.60;;;;;;4956442;29;20450;-78
2021/05/31 08:49:38;;;;;;;4.80;4.40;;;19.50;26.60;;;;;;4960941;28;20306;-77
2021/05/31 08:52:05;;;;;;;4.30;3.90;;;19.50;26.60;;;;;;4975264;28;20449;-77
2021/05/31 08:54:31;;;;;;;4.93;4.63;;;19.50;26.60;;;;;;4975657;28;20466;-77
2021/05/31 08:56:57;;;;;;;4.60;4.30;;;19.50;26.60;;;;;;4977600;28;20480;-79
2021/05/31 08:59:22;;;;;;;4.57;4.27;;;19.50;26.60;;;;;;4975480;28;20663;-77
2021/05/31 09:01:48;;;;;;;4.60;4.30;;;19.50;26.60;;;;;;4970383;28;20285;-77
2021/05/31 09:04:15;;;;;;;4.40;4.10;;;19.50;26.70;;;;;;4976738;28;20189;-75
2021/05/31 09:06:52;;;;;;;5.20;4.90;;;19.50;26.70;;;;;;4976185;28;20214;-77
2021/05/31 09:09:17;;;;;;;5.00;4.60;;;19.50;26.70;;;;;;4977196;28;20464;-76
2021/05/31 09:11:53;;;;;;;4.40;4.20;;;19.50;26.70;;;;;;4977149;28;20430;-78
2021/05/31 09:14:22;;;;;;;4.80;4.47;;;19.50;26.80;;;;;;4976471;28;20253;-78
2021/05/31 09:16:48;;;;;;;4.70;4.30;;;19.50;26.80;;;;;;4977212;28;20421;-77
2021/05/31 09:19:13;;;;;;;5.03;4.63;;;19.50;26.80;;;;;;4977515;28;20421;-78
2021/05/31 09:21:39;;;;;;;5.33;5.03;;;19.50;26.80;;;;;;4977257;28;20253;-77
2021/05/31 09:24:10;;;;;;;4.10;3.90;;;19.50;26.80;;;;;;4977026;28;20557;-77
2021/05/31 09:26:56;;;;;;;5.37;4.87;;;19.50;26.80;;;;;;4977252;28;20461;-77
2021/05/31 09:29:23;;;;;;;5.83;4.60;;;19.50;26.80;;;;;;4977065;28;20410;-75
2021/05/31 09:32:05;;;;;;;4.67;4.30;;;19.50;26.80;;;;;;4958878;28;20534;-78
2021/05/31 09:34:32;;;;;;;4.67;4.37;;;19.50;26.90;;;;;;4958003;29;20407;-77
2021/05/31 09:37:01;;;;;;;4.90;4.60;;;19.50;26.80;;;;;;4957654;29;20415;-78
2021/05/31 09:39:36;;;;;;;5.13;4.83;;;19.50;26.80;;;;;;4958659;29;20442;-77
2021/05/31 09:42:11;;;;;;;4.57;4.27;;;19.50;26.80;;;;;;4957896;29;20438;-77
2021/05/31 09:44:37;;;;;;;5.03;4.67;;;19.50;26.90;;;;;;4956996;29;20841;-77
2021/05/31 09:47:09;;;;;;;4.17;3.97;;;19.50;26.90;;;;;;4956652;29;20458;-78
2021/05/31 09:49:36;;;;;;;4.30;4.00;;;19.50;26.90;;;;;;4958137;29;20669;-77
2021/05/31 09:52:08;;;;;;;5.07;4.67;;;19.50;26.90;;;;;;4965368;28;20438;-75
2021/05/31 09:54:37;;;;;;;4.00;3.80;;;19.50;26.90;;;;;;4975859;28;20885;-76
2021/05/31 09:57:26;;;;;;;5.30;4.90;;;19.50;26.90;;;;;;4976442;28;21008;-77
2021/05/31 10:00:05;;;;;;;4.60;4.30;;;19.50;26.90;;;;;;4966497;28;20415;-77
2021/05/31 10:05:10;;;;;;;4.43;4.23;;;19.50;26.90;;;;;;4957025;29;20407;-75
2021/05/31 10:07:55;;;;;;;4.53;4.10;;;19.50;26.90;;;;;;4956882;29;20470;-77
2021/05/31 10:10:20;;;;;;;4.50;4.10;;;19.50;26.90;;;;;;4956627;29;20773;-76
2021/05/31 10:12:48;;;;;;;4.43;4.13;;;19.50;26.80;;;;;;4956819;29;20431;-76
2021/05/31 10:15:17;;;;;;;5.60;4.87;;;19.50;26.80;;;;;;4956001;29;20167;-77
2021/05/31 10:17:43;;;;;;;4.57;4.27;;;19.50;26.80;;;;;;4956262;29;20426;-76
2021/05/31 10:20:09;;;;;;;4.30;4.10;;;19.50;26.80;;;;;;4957108;29;20502;-77
2021/05/31 10:22:36;;;;;;;4.93;4.50;;;19.50;26.90;;;;;;4957038;29;20250;-77
2021/05/31 10:25:05;;;;;;;4.80;4.40;;;19.50;26.90;;;;;;4939711;29;20447;-77
2021/05/31 10:27:34;;;;;;;4.60;4.20;;;19.50;26.90;;;;;;4957268;29;20875;-77
2021/05/31 10:30:01;;;;;;;4.80;4.50;;;19.50;26.90;;;;;;4955930;29;20406;-77
2021/05/31 10:32:27;;;;;;;4.77;4.47;;;19.50;26.90;;;;;;4956722;29;20434;-77
2021/05/31 10:34:54;;;;;;;5.03;4.60;;;19.50;26.90;;;;;;4958104;29;20403;-77
2021/05/31 10:37:25;;;;;;;4.83;4.47;;;19.50;27.50;;;;;;4958884;29;20183;-78
2021/05/31 10:40:08;;;;;;;4.53;4.23;;;19.50;26.90;;;;;;4959175;29;20403;-77
2021/05/31 10:42:41;;;;;;;5.80;4.53;;;19.50;27.00;;;;;;4958286;29;20446;-78
2021/05/31 10:45:17;;;;;;;4.60;4.30;;;19.50;27.00;;;;;;4956552;29;20419;-77
2021/05/31 10:48:07;;;;;;;4.33;4.00;;;19.50;26.90;;;;;;4956871;29;20462;-77
2021/05/31 10:50:44;;;;;;;4.83;4.53;;;19.50;26.90;;;;;;4957283;29;20442;-77
2021/05/31 10:53:19;;;;;;;5.03;4.70;;;19.50;26.90;;;;;;4940141;29;20442;-77
2021/05/31 10:55:55;;;;;;;4.40;4.13;;;19.50;26.90;;;;;;4958042;29;20497;-77
2021/05/31 10:58:25;;;;;;;5.10;4.70;;;19.50;27.00;;;;;;4973146;28;20861;-78
2021/05/31 11:01:03;;;;;;;4.70;4.40;;;19.50;27.00;;;;;;4977296;28;20444;-78
2021/05/31 11:03:31;;;;;;;4.93;4.53;;;19.50;27.00;;;;;;4968297;28;20429;-77
2021/05/31 11:05:57;;;;;;;4.57;4.30;;;19.50;26.90;;;;;;4974756;28;20446;-77
2021/05/31 11:08:25;;;;;;;5.70;5.00;;;19.50;26.90;;;;;;4975579;28;20448;-77
2021/05/31 11:10:59;;;;;;;7.43;5.30;;;19.60;27.00;;;;;;4975870;28;20411;-77
2021/05/31 11:13:25;;;;;;;5.10;4.63;;;19.50;26.90;;;;;;4974378;28;20421;-77
2021/05/31 11:16:04;;;;;;;4.80;4.50;;;19.50;26.90;;;;;;4973742;28;20417;-76
2021/05/31 11:18:39;;;;;;;4.90;4.60;;;19.50;26.90;;;;;;4974626;28;20410;-76
2021/05/31 11:21:04;;;;;;;4.73;4.43;;;19.50;26.90;;;;;;4974097;28;20433;-76
2021/05/31 11:23:30;;;;;;;4.90;4.50;;;19.50;26.90;;;;;;4974666;28;20441;-77
2021/05/31 11:25:57;;;;;;;5.50;5.00;;;19.50;26.90;;;;;;4973830;28;20217;-77
2021/05/31 11:28:24;;;;;;;3.90;3.70;;;19.50;26.90;;;;;;4973733;28;20234;-75
2021/05/31 11:30:50;;;;;;;5.10;4.60;;;19.50;26.90;;;;;;4974208;28;20410;-76
2021/05/31 11:33:16;;;;;;;6.70;4.50;;;19.50;26.90;;;;;;4973968;28;20449;-76
2021/05/31 11:35:45;;;;;;;4.13;3.90;;;19.50;27.00;;;;;;4955972;28;20505;-76
2021/05/31 11:38:12;;;;;;;4.43;4.13;;;19.50;27.00;;;;;;4957437;28;20502;-76
2021/05/31 11:40:40;;;;;;;3.83;3.53;;;19.50;27.00;;;;;;4954829;29;20423;-76
2021/05/31 11:43:10;;;;;;;4.80;4.50;;;19.50;27.00;;;;;;4955118;29;20442;-77
2021/05/31 11:45:37;;;;;;;4.90;4.60;;;19.50;26.90;;;;;;4953766;29;20827;-77
2021/05/31 11:48:12;;;;;;;4.83;4.50;;;19.50;27.00;;;;;;4963018;28;20434;-76
2021/05/31 11:50:42;;;;;;;4.60;4.33;;;19.50;27.00;;;;;;4938256;29;20434;-77
2021/05/31 11:53:16;;;;;;;4.63;4.23;;;19.50;27.00;;;;;;4955622;29;20470;-78
2021/05/31 11:55:43;;;;;;;4.80;4.50;;;19.50;27.00;;;;;;4937229;29;20459;-77
2021/05/31 11:58:09;;;;;;;4.80;4.50;;;19.50;27.00;;;;;;4955117;29;20852;-77
2021/05/31 12:00:42;;;;;;;5.27;4.77;;;19.40;26.90;;;;;;4956702;29;20419;-77
2021/05/31 12:03:16;;;;;;;4.40;4.13;;;19.50;27.00;;;;;;4955790;29;20445;-77
2021/05/31 12:05:41;;;;;;;5.10;4.70;;;19.50;27.00;;;;;;4955247;29;20411;-77
2021/05/31 12:08:10;;;;;;;4.47;4.17;;;19.50;27.00;;;;;;4955646;29;20446;-78
2021/05/31 12:10:37;;;;;;;5.00;4.70;;;19.50;27.00;;;;;;4955534;29;20267;-76
2021/05/31 12:13:03;;;;;;;5.00;4.60;;;19.50;27.00;;;;;;4955142;29;20774;-77
2021/05/31 12:15:29;;;;;;;5.10;4.70;;;19.50;27.00;;;;;;4958480;28;20429;-77
2021/05/31 12:17:55;;;;;;;5.00;4.60;;;19.50;27.00;;;;;;4972239;28;20974;-78
2021/05/31 12:20:44;;;;;;;5.47;5.07;;;19.50;27.00;;;;;;4975134;28;20581;-77
2021/05/31 12:23:21;;;;;;;5.17;4.80;;;19.50;27.00;;;;;;4960896;28;20214;-79
2021/05/31 12:25:50;;;;;;;5.10;4.80;;;19.50;27.00;;;;;;4978726;28;20438;-76
2021/05/31 12:28:18;;;;;;;4.87;4.57;;;19.50;27.00;;;;;;4977969;28;20429;-77
2021/05/31 12:30:50;;;;;;;5.43;5.00;;;19.50;27.00;;;;;;4972753;28;20423;-78
2021/05/31 12:33:15;;;;;;;4.37;4.07;;;19.50;27.00;;;;;;4969183;28;20529;-77
2021/05/31 12:35:46;;;;;;;4.47;4.17;;;19.50;27.00;;;;;;4977552;28;20508;-77
2021/05/31 12:38:11;;;;;;;4.70;4.30;;;19.50;27.00;;;;;;4977972;28;20644;-77
2021/05/31 12:40:40;;;;;;;4.57;4.33;;;19.40;27.00;;;;;;4978100;28;20426;-76
2021/05/31 12:43:07;;;;;;;4.63;4.30;;;19.50;27.00;;;;;;4976944;28;20323;-77
2021/05/31 12:45:44;;;;;;;5.03;4.63;;;19.50;27.00;;;;;;4978269;28;20501;-76
2021/05/31 12:48:18;;;;;;;4.90;4.50;;;19.50;27.00;;;;;;4978452;28;20429;-77
2021/05/31 12:50:44;;;;;;;4.90;4.60;;;19.40;27.00;;;;;;4967355;28;20406;-77
2021/05/31 12:53:12;;;;;;;4.60;4.20;;;19.40;27.00;;;;;;4958907;29;20426;-77
2021/05/31 12:55:40;;;;;;;4.50;4.20;;;19.50;27.00;;;;;;4970236;28;20406;-77
2021/05/31 12:58:16;;;;;;;4.50;4.20;;;19.50;27.00;;;;;;4957690;28;20410;-77
2021/05/31 13:00:43;;;;;;;5.10;4.60;;;19.40;26.90;;;;;;4977290;28;20912;-76
2021/05/31 13:03:09;;;;;;;4.90;4.60;;;19.40;27.00;;;;;;4977609;28;20430;-77
2021/05/31 13:05:37;;;;;;;5.10;4.37;;;19.40;27.00;;;;;;4977484;28;20768;-78